sensor_id;sensor_type;location;lat;lon;timestamp;temperature;humidity
1570;DHT22;778;50.120;8.698;2022-11-06T04:01:40;7.80;99.90
1570;DHT22;778;50.120;8.698;2022-11-06T04:04:15;7.70;99.90
1570;DHT22;778;50.120;8.698;2022-11-06T04:06:50;7.60;99.90
1570;DHT22;778;50.120;8.698;2022-11-06T04:09:23;7.60;99.90
1570;DHT22;778;50.120;8.698;2022-11-06T04:12:14;7.50;99.90
1570;DHT22;778;50.120;8.698;2022-11-06T04:15:03;7.40;99.90
1570;DHT22;778;50.120;8.698;2022-11-06T04:17:34;7.40;99.90
1570;DHT22;778;50.120;8.698;2022-11-06T04:20:06;7.30;99.90
1570;DHT22;778;50.120;8.698;2022-11-06T04:22:43;7.30;99.90
1570;DHT22;778;50.120;8.698;2022-11-06T04:25:24;7.30;99.90
1570;DHT22;778;50.120;8.698;2022-11-06T04:28:23;7.40;99.90
1570;DHT22;778;50.120;8.698;2022-11-06T04:31:01;7.40;99.90
1570;DHT22;778;50.120;8.698;2022-11-06T04:33:41;7.40;99.90
1570;DHT22;778;50.120;8.698;2022-11-06T04:36:18;7.30;99.90
1570;DHT22;778;50.120;8.698;2022-11-06T04:38:57;7.20;99.90
1570;DHT22;778;50.120;8.698;2022-11-06T04:41:34;7.10;99.90
1570;DHT22;778;50.120;8.698;2022-11-06T04:44:09;7.00;99.90
1570;DHT22;778;50.120;8.698;2022-11-06T04:46:46;7.00;99.90
1570;DHT22;778;50.120;8.698;2022-11-06T04:49:19;7.00;99.90
1570;DHT22;778;50.120;8.698;2022-11-06T04:51:50;7.00;99.90
1570;DHT22;778;50.120;8.698;2022-11-06T04:54:19;7.00;99.90
1570;DHT22;778;50.120;8.698;2022-11-06T04:56:47;7.00;99.90
1570;DHT22;778;50.120;8.698;2022-11-06T04:59:17;7.00;99.90
1570;DHT22;778;50.120;8.698;2022-11-06T05:01:45;7.00;99.90
1570;DHT22;778;50.120;8.698;2022-11-06T05:04:14;7.00;99.90
1570;DHT22;778;50.120;8.698;2022-11-06T05:06:43;7.00;99.90
1570;DHT22;778;50.120;8.698;2022-11-06T05:09:12;7.20;99.90
1570;DHT22;778;50.120;8.698;2022-11-06T05:11:40;7.20;99.90
1570;DHT22;778;50.120;8.698;2022-11-06T05:14:09;7.20;99.90
1570;DHT22;778;50.120;8.698;2022-11-06T05:16:37;7.30;99.90
1570;DHT22;778;50.120;8.698;2022-11-06T05:19:05;7.30;99.90
1570;DHT22;778;50.120;8.698;2022-11-06T05:21:34;7.30;99.90
1570;DHT22;778;50.120;8.698;2022-11-06T05:24:21;7.30;99.90
1570;DHT22;778;50.120;8.698;2022-11-06T05:26:50;7.20;99.90
1570;DHT22;778;50.120;8.698;2022-11-06T05:29:25;7.20;99.90
1570;DHT22;778;50.120;8.698;2022-11-06T05:31:53;7.10;99.90
1570;DHT22;778;50.120;8.698;2022-11-06T05:34:22;7.00;99.90
1570;DHT22;778;50.120;8.698;2022-11-06T05:36:50;6.90;99.90
1570;DHT22;778;50.120;8.698;2022-11-06T05:39:20;6.90;99.90
1570;DHT22;778;50.120;8.698;2022-11-06T05:41:49;6.80;99.90
1570;DHT22;778;50.120;8.698;2022-11-06T05:44:17;6.80;99.90
1570;DHT22;778;50.120;8.698;2022-11-06T05:46:45;6.60;99.90
1570;DHT22;778;50.120;8.698;2022-11-06T05:49:16;6.60;99.90
1570;DHT22;778;50.120;8.698;2022-11-06T05:51:45;6.50;99.90
1570;DHT22;778;50.120;8.698;2022-11-06T05:54:13;6.50;99.90
1570;DHT22;778;50.120;8.698;2022-11-06T05:56:43;6.50;99.90
1570;DHT22;778;50.120;8.698;2022-11-06T05:59:11;6.50;99.90
1570;DHT22;778;50.120;8.698;2022-11-06T06:01:40;6.50;99.90
1570;DHT22;778;50.120;8.698;2022-11-06T06:04:09;6.50;99.90
1570;DHT22;778;50.120;8.698;2022-11-06T06:06:37;6.40;99.90
1570;DHT22;778;50.120;8.698;2022-11-06T06:09:06;6.40;99.90
1570;DHT22;778;50.120;8.698;2022-11-06T06:11:34;6.40;99.90
1570;DHT22;778;50.120;8.698;2022-11-06T06:14:04;6.80;99.90
1570;DHT22;778;50.120;8.698;2022-11-06T06:16:32;6.70;99.90
1570;DHT22;778;50.120;8.698;2022-11-06T06:19:00;6.60;99.90
1570;DHT22;778;50.120;8.698;2022-11-06T06:21:29;6.50;99.90
1570;DHT22;778;50.120;8.698;2022-11-06T06:23:57;6.40;99.90
1570;DHT22;778;50.120;8.698;2022-11-06T06:26:26;6.30;99.90
1570;DHT22;778;50.120;8.698;2022-11-06T06:28:54;6.30;99.90
1570;DHT22;778;50.120;8.698;2022-11-06T06:31:24;6.20;99.90
1570;DHT22;778;50.120;8.698;2022-11-06T06:33:52;6.10;99.90
1570;DHT22;778;50.120;8.698;2022-11-06T06:36:21;6.10;99.90
1570;DHT22;778;50.120;8.698;2022-11-06T06:38:49;6.10;99.90
1570;DHT22;778;50.120;8.698;2022-11-06T06:41:18;6.00;99.90
1570;DHT22;778;50.120;8.698;2022-11-06T06:43:47;6.00;99.90
1570;DHT22;778;50.120;8.698;2022-11-06T06:46:16;5.90;99.90
1570;DHT22;778;50.120;8.698;2022-11-06T06:48:46;5.80;99.90
1570;DHT22;778;50.120;8.698;2022-11-06T06:51:15;5.80;99.90
1570;DHT22;778;50.120;8.698;2022-11-06T06:53:49;5.80;99.90
1570;DHT22;778;50.120;8.698;2022-11-06T06:56:18;5.70;99.90
1570;DHT22;778;50.120;8.698;2022-11-06T06:58:47;5.70;99.90
1570;DHT22;778;50.120;8.698;2022-11-06T07:01:15;5.60;99.90
1570;DHT22;778;50.120;8.698;2022-11-06T07:03:44;5.70;99.90
1570;DHT22;778;50.120;8.698;2022-11-06T07:06:13;5.70;99.90
1570;DHT22;778;50.120;8.698;2022-11-06T07:08:42;5.70;99.90
1570;DHT22;778;50.120;8.698;2022-11-06T07:11:10;5.70;99.90
1570;DHT22;778;50.120;8.698;2022-11-06T07:13:39;5.70;99.90
1570;DHT22;778;50.120;8.698;2022-11-06T07:16:09;5.70;99.90
1570;DHT22;778;50.120;8.698;2022-11-06T07:18:38;5.80;99.90
1570;DHT22;778;50.120;8.698;2022-11-06T07:21:10;5.70;99.90
1570;DHT22;778;50.120;8.698;2022-11-06T07:23:39;5.80;99.90
1570;DHT22;778;50.120;8.698;2022-11-06T07:26:08;5.80;99.90
1570;DHT22;778;50.120;8.698;2022-11-06T07:28:36;5.80;99.90
1570;DHT22;778;50.120;8.698;2022-11-06T07:31:06;5.80;99.90
1570;DHT22;778;50.120;8.698;2022-11-06T07:33:35;5.80;99.90
1570;DHT22;778;50.120;8.698;2022-11-06T07:36:05;5.90;99.90
1570;DHT22;778;50.120;8.698;2022-11-06T07:38:36;5.90;99.90
1570;DHT22;778;50.120;8.698;2022-11-06T07:41:08;6.00;99.90
1570;DHT22;778;50.120;8.698;2022-11-06T07:43:38;6.00;99.90
1570;DHT22;778;50.120;8.698;2022-11-06T07:46:09;6.00;99.90
1570;DHT22;778;50.120;8.698;2022-11-06T07:48:38;6.10;99.90
1570;DHT22;778;50.120;8.698;2022-11-06T07:51:09;6.10;99.90
1570;DHT22;778;50.120;8.698;2022-11-06T07:53:39;6.20;99.90
1570;DHT22;778;50.120;8.698;2022-11-06T07:56:08;6.20;99.90
1570;DHT22;778;50.120;8.698;2022-11-06T07:58:36;6.30;99.90
1570;DHT22;778;50.120;8.698;2022-11-06T08:01:05;6.30;99.90
1570;DHT22;778;50.120;8.698;2022-11-06T08:03:37;6.40;99.90
1570;DHT22;778;50.120;8.698;2022-11-06T08:06:06;6.40;99.90
1570;DHT22;778;50.120;8.698;2022-11-06T08:08:35;6.40;99.90
1570;DHT22;778;50.120;8.698;2022-11-06T08:11:05;6.50;99.90
1570;DHT22;778;50.120;8.698;2022-11-06T08:13:36;6.60;99.90
1570;DHT22;778;50.120;8.698;2022-11-06T08:16:05;6.50;99.90
1570;DHT22;778;50.120;8.698;2022-11-06T08:18:35;6.60;99.90
1570;DHT22;778;50.120;8.698;2022-11-06T08:21:05;6.60;99.90
1570;DHT22;778;50.120;8.698;2022-11-06T08:23:34;6.70;99.90
1570;DHT22;778;50.120;8.698;2022-11-06T08:26:05;6.70;99.90
1570;DHT22;778;50.120;8.698;2022-11-06T08:28:33;6.80;99.90
1570;DHT22;778;50.120;8.698;2022-11-06T08:31:03;6.80;99.90
1570;DHT22;778;50.120;8.698;2022-11-06T08:33:33;6.90;99.90
1570;DHT22;778;50.120;8.698;2022-11-06T08:36:02;6.90;99.90
1570;DHT22;778;50.120;8.698;2022-11-06T08:38:32;6.90;99.90
1570;DHT22;778;50.120;8.698;2022-11-06T08:41:04;7.00;99.90
1570;DHT22;778;50.120;8.698;2022-11-06T08:43:34;7.10;99.90
1570;DHT22;778;50.120;8.698;2022-11-06T08:46:04;7.20;99.90
1570;DHT22;778;50.120;8.698;2022-11-06T08:48:33;7.30;99.90
1570;DHT22;778;50.120;8.698;2022-11-06T08:51:03;7.40;99.90
1570;DHT22;778;50.120;8.698;2022-11-06T08:53:32;7.40;99.90
1570;DHT22;778;50.120;8.698;2022-11-06T08:56:02;7.50;99.90
1570;DHT22;778;50.120;8.698;2022-11-06T08:58:32;7.60;99.90
1570;DHT22;778;50.120;8.698;2022-11-06T09:01:00;7.70;99.90
1570;DHT22;778;50.120;8.698;2022-11-06T09:03:29;7.70;99.90
1570;DHT22;778;50.120;8.698;2022-11-06T09:05:57;7.90;99.90
1570;DHT22;778;50.120;8.698;2022-11-06T09:08:26;8.00;99.90
1570;DHT22;778;50.120;8.698;2022-11-06T09:10:54;8.10;99.90
1570;DHT22;778;50.120;8.698;2022-11-06T09:13:26;8.10;99.90
1570;DHT22;778;50.120;8.698;2022-11-06T09:15:54;8.30;99.90
1570;DHT22;778;50.120;8.698;2022-11-06T09:18:23;8.30;99.90
1570;DHT22;778;50.120;8.698;2022-11-06T09:20:53;8.40;99.90
1570;DHT22;778;50.120;8.698;2022-11-06T09:23:22;8.60;99.90
1570;DHT22;778;50.120;8.698;2022-11-06T09:25:51;8.80;99.90
1570;DHT22;778;50.120;8.698;2022-11-06T09:28:19;9.30;99.90
1570;DHT22;778;50.120;8.698;2022-11-06T09:30:49;9.60;99.90
1570;DHT22;778;50.120;8.698;2022-11-06T09:33:18;10.00;99.90
1570;DHT22;778;50.120;8.698;2022-11-06T09:35:47;10.30;99.90
1570;DHT22;778;50.120;8.698;2022-11-06T09:38:15;10.80;99.90
1570;DHT22;778;50.120;8.698;2022-11-06T09:40:48;11.10;99.90
1570;DHT22;778;50.120;8.698;2022-11-06T09:43:29;11.40;99.90
1570;DHT22;778;50.120;8.698;2022-11-06T09:46:24;11.80;99.90
1570;DHT22;778;50.120;8.698;2022-11-06T09:48:57;12.30;99.90
1570;DHT22;778;50.120;8.698;2022-11-06T09:51:35;12.50;99.90
1570;DHT22;778;50.120;8.698;2022-11-06T09:54:12;12.60;99.90
1570;DHT22;778;50.120;8.698;2022-11-06T09:56:44;12.70;99.90
1570;DHT22;778;50.120;8.698;2022-11-06T09:59:17;12.80;99.90
1570;DHT22;778;50.120;8.698;2022-11-06T10:01:50;12.80;99.90
1570;DHT22;778;50.120;8.698;2022-11-06T10:04:30;13.00;99.90
1570;DHT22;778;50.120;8.698;2022-11-06T10:07:19;13.10;99.90
1570;DHT22;778;50.120;8.698;2022-11-06T10:09:53;13.20;99.90
1570;DHT22;778;50.120;8.698;2022-11-06T10:12:31;13.40;99.90
1570;DHT22;778;50.120;8.698;2022-11-06T10:15:16;13.40;99.90
1570;DHT22;778;50.120;8.698;2022-11-06T10:17:53;13.60;99.90
1570;DHT22;778;50.120;8.698;2022-11-06T10:20:30;13.70;99.90
1570;DHT22;778;50.120;8.698;2022-11-06T10:23:04;13.70;99.90
1570;DHT22;778;50.120;8.698;2022-11-06T10:25:44;13.80;99.90
1570;DHT22;778;50.120;8.698;2022-11-06T10:28:26;14.00;99.90
1570;DHT22;778;50.120;8.698;2022-11-06T10:31:22;13.60;99.90
1570;DHT22;778;50.120;8.698;2022-11-06T10:33:59;13.60;99.90
1570;DHT22;778;50.120;8.698;2022-11-06T10:36:33;13.20;99.90
1570;DHT22;778;50.120;8.698;2022-11-06T10:39:04;13.30;99.90
1570;DHT22;778;50.120;8.698;2022-11-06T10:41:39;13.30;99.90
1570;DHT22;778;50.120;8.698;2022-11-06T10:44:16;13.50;99.90
1570;DHT22;778;50.120;8.698;2022-11-06T10:46:51;13.60;99.90
1570;DHT22;778;50.120;8.698;2022-11-06T10:49:29;13.50;99.90
1570;DHT22;778;50.120;8.698;2022-11-06T10:52:30;13.50;99.90
1570;DHT22;778;50.120;8.698;2022-11-06T10:58:23;13.90;99.90
1570;DHT22;778;50.120;8.698;2022-11-06T11:00:58;14.10;99.90
1570;DHT22;778;50.120;8.698;2022-11-06T11:03:30;14.30;99.90
1570;DHT22;778;50.120;8.698;2022-11-06T11:06:03;14.20;99.90
1570;DHT22;778;50.120;8.698;2022-11-06T11:08:34;14.20;99.90
1570;DHT22;778;50.120;8.698;2022-11-06T11:11:15;14.10;99.90
1570;DHT22;778;50.120;8.698;2022-11-06T11:13:50;14.50;99.90
1570;DHT22;778;50.120;8.698;2022-11-06T11:16:37;14.40;99.90
1570;DHT22;778;50.120;8.698;2022-11-06T11:19:23;14.50;99.90
1570;DHT22;778;50.120;8.698;2022-11-06T11:21:57;14.30;99.90
1570;DHT22;778;50.120;8.698;2022-11-06T11:24:26;14.20;99.90
1570;DHT22;778;50.120;8.698;2022-11-06T11:26:58;14.20;99.90
1570;DHT22;778;50.120;8.698;2022-11-06T11:29:31;14.30;99.90
1570;DHT22;778;50.120;8.698;2022-11-06T11:32:03;14.30;99.90
1570;DHT22;778;50.120;8.698;2022-11-06T11:34:35;13.50;99.90
1570;DHT22;778;50.120;8.698;2022-11-06T11:37:23;13.70;99.90
1570;DHT22;778;50.120;8.698;2022-11-06T11:39:54;14.10;99.90
1570;DHT22;778;50.120;8.698;2022-11-06T11:42:25;14.40;99.90
1570;DHT22;778;50.120;8.698;2022-11-06T11:45:13;14.40;99.90
1570;DHT22;778;50.120;8.698;2022-11-06T11:47:46;14.60;99.90
1570;DHT22;778;50.120;8.698;2022-11-06T11:50:25;14.80;99.90
1570;DHT22;778;50.120;8.698;2022-11-06T11:53:02;14.90;99.90
1570;DHT22;778;50.120;8.698;2022-11-06T11:55:39;15.00;99.90
1570;DHT22;778;50.120;8.698;2022-11-06T11:58:18;14.70;99.90
1570;DHT22;778;50.120;8.698;2022-11-06T12:00:54;14.40;99.90
1570;DHT22;778;50.120;8.698;2022-11-06T12:03:26;14.40;99.90
1570;DHT22;778;50.120;8.698;2022-11-06T12:06:05;14.40;99.90
1570;DHT22;778;50.120;8.698;2022-11-06T12:08:37;14.40;99.90
1570;DHT22;778;50.120;8.698;2022-11-06T12:11:13;14.50;99.90
1570;DHT22;778;50.120;8.698;2022-11-06T12:13:43;14.30;99.90
1570;DHT22;778;50.120;8.698;2022-11-06T12:16:14;14.30;99.90
1570;DHT22;778;50.120;8.698;2022-11-06T12:18:47;14.10;99.90
1570;DHT22;778;50.120;8.698;2022-11-06T12:21:28;13.90;99.90
1570;DHT22;778;50.120;8.698;2022-11-06T12:24:04;13.60;99.90
1570;DHT22;778;50.120;8.698;2022-11-06T12:26:38;13.30;99.90
1570;DHT22;778;50.120;8.698;2022-11-06T12:29:13;13.00;99.90
1570;DHT22;778;50.120;8.698;2022-11-06T12:31:47;13.00;99.90
1570;DHT22;778;50.120;8.698;2022-11-06T12:34:23;13.00;99.90
1570;DHT22;778;50.120;8.698;2022-11-06T12:37:12;12.90;99.90
1570;DHT22;778;50.120;8.698;2022-11-06T12:39:53;12.90;99.90
1570;DHT22;778;50.120;8.698;2022-11-06T12:42:29;13.00;99.90
1570;DHT22;778;50.120;8.698;2022-11-06T12:44:58;13.00;99.90
1570;DHT22;778;50.120;8.698;2022-11-06T12:47:34;12.80;99.90
1570;DHT22;778;50.120;8.698;2022-11-06T12:50:20;13.00;99.90
1570;DHT22;778;50.120;8.698;2022-11-06T12:53:18;13.10;99.90
1570;DHT22;778;50.120;8.698;2022-11-06T12:55:57;13.10;99.90
1570;DHT22;778;50.120;8.698;2022-11-06T12:59:03;12.90;99.90
